<?xml version="1.0" encoding="UTF-8" standalone="no" ?>
<gpx xmlns="http://www.topografix.com/GPX/1/1" xmlns:xsi="http://www.w3.org/2001/XMLSchema-instance" xsi:schemaLocation="http://www.topografix.com/GPX/1/1 http://www.topografix.com/GPX/1/1/gpx.xsd" version="1.1" creator="VisuGPX - https://www.visugpx.com">
  <metadata>
    <name>JpBaziege1Lamothe </name>
    <desc><![CDATA[randonnée de la matinée pas de boue un peu de goudron ]]></desc>
  </metadata>
  <trk>
    <name><![CDATA[9 janv. 2014 09:29:15]]></name>
    <cmt><![CDATA[9 janv. 2014 09:29:15]]></cmt>
    <trkseg>
      <trkpt lat="43.45467" lon="1.61493">
        <ele>171</ele>
        <time>2014-01-09T08:32:11Z</time>
      </trkpt>
      <trkpt lat="43.45523" lon="1.61518">
        <ele>154</ele>
        <time>2014-01-09T08:33:12Z</time>
      </trkpt>
      <trkpt lat="43.45604" lon="1.61582">
        <ele>166</ele>
        <time>2014-01-09T08:34:38Z</time>
      </trkpt>
      <trkpt lat="43.45666" lon="1.61673">
        <ele>173</ele>
        <time>2014-01-09T08:38:16Z</time>
      </trkpt>
      <trkpt lat="43.45679" lon="1.6169">
        <ele>162</ele>
        <time>2014-01-09T08:39:21Z</time>
      </trkpt>
      <trkpt lat="43.45738" lon="1.61785">
        <ele>168</ele>
        <time>2014-01-09T08:44:46Z</time>
      </trkpt>
      <trkpt lat="43.45793" lon="1.61886">
        <ele>176</ele>
        <time>2014-01-09T08:46:57Z</time>
      </trkpt>
      <trkpt lat="43.45837" lon="1.61993">
        <ele>195</ele>
        <time>2014-01-09T08:49:11Z</time>
      </trkpt>
      <trkpt lat="43.45859" lon="1.6205">
        <ele>200</ele>
        <time>2014-01-09T08:49:56Z</time>
      </trkpt>
      <trkpt lat="43.45913" lon="1.62151">
        <ele>202</ele>
        <time>2014-01-09T08:51:47Z</time>
      </trkpt>
      <trkpt lat="43.45838" lon="1.62222">
        <ele>201</ele>
        <time>2014-01-09T08:54:19Z</time>
      </trkpt>
      <trkpt lat="43.45822" lon="1.62231">
        <ele>200</ele>
        <time>2014-01-09T08:54:38Z</time>
      </trkpt>
      <trkpt lat="43.45738" lon="1.62276">
        <ele>195</ele>
        <time>2014-01-09T08:57:26Z</time>
      </trkpt>
      <trkpt lat="43.45653" lon="1.62322">
        <ele>194</ele>
        <time>2014-01-09T09:01:27Z</time>
      </trkpt>
      <trkpt lat="43.45566" lon="1.62358">
        <ele>182</ele>
        <time>2014-01-09T09:04:47Z</time>
      </trkpt>
      <trkpt lat="43.45483" lon="1.62407">
        <ele>183</ele>
        <time>2014-01-09T09:05:51Z</time>
      </trkpt>
      <trkpt lat="43.45473" lon="1.62412">
        <ele>184</ele>
        <time>2014-01-09T09:07:21Z</time>
      </trkpt>
      <trkpt lat="43.45507" lon="1.62296">
        <ele>189</ele>
        <time>2014-01-09T09:10:41Z</time>
      </trkpt>
      <trkpt lat="43.45596" lon="1.62284">
        <ele>192</ele>
        <time>2014-01-09T09:11:55Z</time>
      </trkpt>
      <trkpt lat="43.45637" lon="1.6225">
        <ele>199</ele>
        <time>2014-01-09T09:14:59Z</time>
      </trkpt>
      <trkpt lat="43.45553" lon="1.623">
        <ele>195</ele>
        <time>2014-01-09T09:17:16Z</time>
      </trkpt>
      <trkpt lat="43.45546" lon="1.62298">
        <ele>193</ele>
        <time>2014-01-09T09:17:20Z</time>
      </trkpt>
      <trkpt lat="43.45474" lon="1.62373">
        <ele>188</ele>
        <time>2014-01-09T09:18:50Z</time>
      </trkpt>
      <trkpt lat="43.45411" lon="1.62462">
        <ele>181</ele>
        <time>2014-01-09T09:20:08Z</time>
      </trkpt>
      <trkpt lat="43.45331" lon="1.62521">
        <ele>169</ele>
        <time>2014-01-09T09:21:22Z</time>
      </trkpt>
      <trkpt lat="43.453" lon="1.62543">
        <ele>164</ele>
        <time>2014-01-09T09:21:52Z</time>
      </trkpt>
      <trkpt lat="43.45216" lon="1.62589">
        <ele>157</ele>
        <time>2014-01-09T09:23:06Z</time>
      </trkpt>
      <trkpt lat="43.45176" lon="1.6264">
        <ele>160</ele>
        <time>2014-01-09T09:25:20Z</time>
      </trkpt>
      <trkpt lat="43.45205" lon="1.6268">
        <ele>157</ele>
        <time>2014-01-09T09:26:01Z</time>
      </trkpt>
      <trkpt lat="43.45264" lon="1.62776">
        <ele>154</ele>
        <time>2014-01-09T09:27:53Z</time>
      </trkpt>
      <trkpt lat="43.45336" lon="1.62852">
        <ele>162</ele>
        <time>2014-01-09T09:28:59Z</time>
      </trkpt>
      <trkpt lat="43.45413" lon="1.62917">
        <ele>156</ele>
        <time>2014-01-09T09:30:21Z</time>
      </trkpt>
      <trkpt lat="43.45476" lon="1.63007">
        <ele>166</ele>
        <time>2014-01-09T09:32:16Z</time>
      </trkpt>
      <trkpt lat="43.45537" lon="1.63099">
        <ele>170</ele>
        <time>2014-01-09T09:33:30Z</time>
      </trkpt>
      <trkpt lat="43.45571" lon="1.63214">
        <ele>170</ele>
        <time>2014-01-09T09:35:06Z</time>
      </trkpt>
      <trkpt lat="43.4556" lon="1.63336">
        <ele>174</ele>
        <time>2014-01-09T09:36:17Z</time>
      </trkpt>
      <trkpt lat="43.45567" lon="1.63419">
        <ele>179</ele>
        <time>2014-01-09T09:37:07Z</time>
      </trkpt>
      <trkpt lat="43.45643" lon="1.63492">
        <ele>177</ele>
        <time>2014-01-09T09:38:26Z</time>
      </trkpt>
      <trkpt lat="43.45721" lon="1.63556">
        <ele>179</ele>
        <time>2014-01-09T09:39:38Z</time>
      </trkpt>
      <trkpt lat="43.45747" lon="1.63677">
        <ele>183</ele>
        <time>2014-01-09T09:40:55Z</time>
      </trkpt>
      <trkpt lat="43.45721" lon="1.63795">
        <ele>180</ele>
        <time>2014-01-09T09:42:47Z</time>
      </trkpt>
      <trkpt lat="43.45685" lon="1.63908">
        <ele>193</ele>
        <time>2014-01-09T09:44:57Z</time>
      </trkpt>
      <trkpt lat="43.45692" lon="1.64033">
        <ele>183</ele>
        <time>2014-01-09T09:47:42Z</time>
      </trkpt>
      <trkpt lat="43.4576" lon="1.64078">
        <ele>188</ele>
        <time>2014-01-09T09:48:58Z</time>
      </trkpt>
      <trkpt lat="43.45839" lon="1.6414">
        <ele>184</ele>
        <time>2014-01-09T09:50:16Z</time>
      </trkpt>
      <trkpt lat="43.45923" lon="1.6419">
        <ele>181</ele>
        <time>2014-01-09T09:51:27Z</time>
      </trkpt>
      <trkpt lat="43.45993" lon="1.64268">
        <ele>175</ele>
        <time>2014-01-09T09:52:46Z</time>
      </trkpt>
      <trkpt lat="43.4607" lon="1.64335">
        <ele>176</ele>
        <time>2014-01-09T09:53:56Z</time>
      </trkpt>
      <trkpt lat="43.4616" lon="1.6435">
        <ele>183</ele>
        <time>2014-01-09T09:55:39Z</time>
      </trkpt>
      <trkpt lat="43.46249" lon="1.64325">
        <ele>174</ele>
        <time>2014-01-09T10:09:44Z</time>
      </trkpt>
      <trkpt lat="43.46338" lon="1.64302">
        <ele>168</ele>
        <time>2014-01-09T10:11:04Z</time>
      </trkpt>
      <trkpt lat="43.46426" lon="1.64278">
        <ele>170</ele>
        <time>2014-01-09T10:12:25Z</time>
      </trkpt>
      <trkpt lat="43.46472" lon="1.64171">
        <ele>173</ele>
        <time>2014-01-09T10:14:49Z</time>
      </trkpt>
      <trkpt lat="43.46463" lon="1.64048">
        <ele>166</ele>
        <time>2014-01-09T10:16:15Z</time>
      </trkpt>
      <trkpt lat="43.46424" lon="1.63936">
        <ele>168</ele>
        <time>2014-01-09T10:17:32Z</time>
      </trkpt>
      <trkpt lat="43.4641" lon="1.63908">
        <ele>169</ele>
        <time>2014-01-09T10:17:54Z</time>
      </trkpt>
      <trkpt lat="43.46361" lon="1.63804">
        <ele>164</ele>
        <time>2014-01-09T10:19:12Z</time>
      </trkpt>
      <trkpt lat="43.4633" lon="1.63687">
        <ele>171</ele>
        <time>2014-01-09T10:20:29Z</time>
      </trkpt>
      <trkpt lat="43.46284" lon="1.6358">
        <ele>161</ele>
        <time>2014-01-09T10:21:47Z</time>
      </trkpt>
      <trkpt lat="43.46238" lon="1.63473">
        <ele>163</ele>
        <time>2014-01-09T10:23:04Z</time>
      </trkpt>
      <trkpt lat="43.46214" lon="1.63353">
        <ele>162</ele>
        <time>2014-01-09T10:24:23Z</time>
      </trkpt>
      <trkpt lat="43.46202" lon="1.6328">
        <ele>168</ele>
        <time>2014-01-09T10:25:12Z</time>
      </trkpt>
      <trkpt lat="43.46184" lon="1.63157">
        <ele>163</ele>
        <time>2014-01-09T10:26:27Z</time>
      </trkpt>
      <trkpt lat="43.46179" lon="1.63032">
        <ele>171</ele>
        <time>2014-01-09T10:27:43Z</time>
      </trkpt>
      <trkpt lat="43.46166" lon="1.62908">
        <ele>163</ele>
        <time>2014-01-09T10:28:59Z</time>
      </trkpt>
      <trkpt lat="43.4615" lon="1.62785">
        <ele>168</ele>
        <time>2014-01-09T10:30:14Z</time>
      </trkpt>
      <trkpt lat="43.46091" lon="1.62691">
        <ele>171</ele>
        <time>2014-01-09T10:31:33Z</time>
      </trkpt>
      <trkpt lat="43.46077" lon="1.62568">
        <ele>180</ele>
        <time>2014-01-09T10:33:16Z</time>
      </trkpt>
      <trkpt lat="43.46041" lon="1.62453">
        <ele>192</ele>
        <time>2014-01-09T10:35:23Z</time>
      </trkpt>
      <trkpt lat="43.45992" lon="1.62349">
        <ele>201</ele>
        <time>2014-01-09T10:36:56Z</time>
      </trkpt>
      <trkpt lat="43.45938" lon="1.6225">
        <ele>205</ele>
        <time>2014-01-09T10:40:44Z</time>
      </trkpt>
      <trkpt lat="43.45916" lon="1.62129">
        <ele>200</ele>
        <time>2014-01-09T10:42:20Z</time>
      </trkpt>
      <trkpt lat="43.45919" lon="1.62086">
        <ele>201</ele>
        <time>2014-01-09T10:43:26Z</time>
      </trkpt>
      <trkpt lat="43.45845" lon="1.62016">
        <ele>201</ele>
        <time>2014-01-09T10:45:06Z</time>
      </trkpt>
      <trkpt lat="43.458" lon="1.61909">
        <ele>190</ele>
        <time>2014-01-09T10:46:32Z</time>
      </trkpt>
      <trkpt lat="43.45792" lon="1.61886">
        <ele>188</ele>
        <time>2014-01-09T10:46:48Z</time>
      </trkpt>
      <trkpt lat="43.45737" lon="1.61785">
        <ele>163</ele>
        <time>2014-01-09T10:48:40Z</time>
      </trkpt>
      <trkpt lat="43.45676" lon="1.61693">
        <ele>167</ele>
        <time>2014-01-09T10:50:05Z</time>
      </trkpt>
      <trkpt lat="43.45615" lon="1.61601">
        <ele>154</ele>
        <time>2014-01-09T10:51:26Z</time>
      </trkpt>
      <trkpt lat="43.45544" lon="1.61525">
        <ele>157</ele>
        <time>2014-01-09T10:52:47Z</time>
      </trkpt>
      <trkpt lat="43.45456" lon="1.61488">
        <ele>151</ele>
        <time>2014-01-09T10:54:18Z</time>
      </trkpt>
    </trkseg>
  </trk>
</gpx>